Aviation Digital Data Service (ADDS)

Output produced by METARs form (1054 UTC 11 May 2021)
found at http://www.aviationweather.gov/metar/data/
 
METAR text: ROAH 111030Z 18011KT 9999 FEW005 SCT/// 25/25 Q1011 RMK 1ST005 A2986
Conditions at: ROAH (NAHA (CIV/JASDF), JP) observed 1030 UTC 11 May 2021
Temperature: 25.0°C (77°F)
Dewpoint: 25.0°C (77°F) [RH = 100%]
Pressure (altimeter): 29.85 inches Hg (1011.0 mb)
Winds: from the S (180 degrees) at 13 MPH (11 knots; 5.7 m/s)
Visibility: 6 or more miles (10+ km)
Ceiling: at least 12,000 feet AGL
Clouds: few clouds at 500 feet AGL
Weather: no significant weather observed at this time

METAR text: ROAH 111000Z 18011KT 9999 FEW005 SCT/// 26/25 Q1011 RMK 1ST005 A2985
Conditions at: ROAH (NAHA (CIV/JASDF), JP) observed 1000 UTC 11 May 2021
Temperature: 26.0°C (79°F)
Dewpoint: 25.0°C (77°F) [RH = 94%]
Pressure (altimeter): 29.85 inches Hg (1011.0 mb)
Winds: from the S (180 degrees) at 13 MPH (11 knots; 5.7 m/s)
Visibility: 6 or more miles (10+ km)
Ceiling: at least 12,000 feet AGL
Clouds: few clouds at 500 feet AGL
Weather: no significant weather observed at this time

METAR text: ROAH 110930Z 18011KT 9999 FEW005 SCT220 26/25 Q1010 RMK 1ST005 3AC220 A2985
Conditions at: ROAH (NAHA (CIV/JASDF), JP) observed 0930 UTC 11 May 2021
Temperature: 26.0°C (79°F)
Dewpoint: 25.0°C (77°F) [RH = 94%]
Pressure (altimeter): 29.82 inches Hg (1010.0 mb)
Winds: from the S (180 degrees) at 13 MPH (11 knots; 5.7 m/s)
Visibility: 6 or more miles (10+ km)
Ceiling: at least 12,000 feet AGL
Clouds: few clouds at 500 feet AGL
scattered clouds at 22000 feet AGL
Weather: no significant weather observed at this time

METAR text: ROAH 110900Z 18011KT 9999 FEW005 BKN220 26/25 Q1010 RMK 1ST005 6AC220 A2984
Conditions at: ROAH (NAHA (CIV/JASDF), JP) observed 0900 UTC 11 May 2021
Temperature: 26.0°C (79°F)
Dewpoint: 25.0°C (77°F) [RH = 94%]
Pressure (altimeter): 29.82 inches Hg (1010.0 mb)
Winds: from the S (180 degrees) at 13 MPH (11 knots; 5.7 m/s)
Visibility: 6 or more miles (10+ km)
Ceiling: 22000 feet AGL
Clouds: few clouds at 500 feet AGL
broken clouds at 22000 feet AGL
Weather: no significant weather observed at this time

METAR text: ROAH 110830Z 18012KT 9999 FEW005 BKN220 27/25 Q1010 RMK 2ST005 6AC220 A2983
Conditions at: ROAH (NAHA (CIV/JASDF), JP) observed 0830 UTC 11 May 2021
Temperature: 27.0°C (81°F)
Dewpoint: 25.0°C (77°F) [RH = 89%]
Pressure (altimeter): 29.82 inches Hg (1010.0 mb)
Winds: from the S (180 degrees) at 14 MPH (12 knots; 6.2 m/s)
Visibility: 6 or more miles (10+ km)
Ceiling: 22000 feet AGL
Clouds: few clouds at 500 feet AGL
broken clouds at 22000 feet AGL
Weather: no significant weather observed at this time

METAR text: ROAH 110800Z 18012KT 9999 FEW003 SCT005 BKN/// 27/25 Q1010 RMK 1ST003 3ST005 A2983
Conditions at: ROAH (NAHA (CIV/JASDF), JP) observed 0800 UTC 11 May 2021
Temperature: 27.0°C (81°F)
Dewpoint: 25.0°C (77°F) [RH = 89%]
Pressure (altimeter): 29.82 inches Hg (1010.0 mb)
Winds: from the S (180 degrees) at 14 MPH (12 knots; 6.2 m/s)
Visibility: 6 or more miles (10+ km)
Ceiling: at least 12,000 feet AGL
Clouds: few clouds at 300 feet AGL
scattered clouds at 500 feet AGL
Weather: no significant weather observed at this time

METAR text: ROAH 110730Z 19012KT 9999 FEW003 SCT/// 27/25 Q1010 RMK 1ST003 A2982
Conditions at: ROAH (NAHA (CIV/JASDF), JP) observed 0730 UTC 11 May 2021
Temperature: 27.0°C (81°F)
Dewpoint: 25.0°C (77°F) [RH = 89%]
Pressure (altimeter): 29.82 inches Hg (1010.0 mb)
Winds: from the S (190 degrees) at 14 MPH (12 knots; 6.2 m/s)
Visibility: 6 or more miles (10+ km)
Ceiling: at least 12,000 feet AGL
Clouds: few clouds at 300 feet AGL
Weather: no significant weather observed at this time

METAR text: ROAH 110700Z 18012KT 9999 FEW004 SCT007 BKN/// 27/25 Q1010 RMK 2ST004 3ST007 A2983
Conditions at: ROAH (NAHA (CIV/JASDF), JP) observed 0700 UTC 11 May 2021
Temperature: 27.0°C (81°F)
Dewpoint: 25.0°C (77°F) [RH = 89%]
Pressure (altimeter): 29.82 inches Hg (1010.0 mb)
Winds: from the S (180 degrees) at 14 MPH (12 knots; 6.2 m/s)
Visibility: 6 or more miles (10+ km)
Ceiling: at least 12,000 feet AGL
Clouds: few clouds at 400 feet AGL
scattered clouds at 700 feet AGL
Weather: no significant weather observed at this time

METAR text: ROAH 110630Z 18012KT 9999 FEW005 SCT007 27/25 Q1010 RMK 2ST005 4ST007 A2984
Conditions at: ROAH (NAHA (CIV/JASDF), JP) observed 0630 UTC 11 May 2021
Temperature: 27.0°C (81°F)
Dewpoint: 25.0°C (77°F) [RH = 89%]
Pressure (altimeter): 29.82 inches Hg (1010.0 mb)
Winds: from the S (180 degrees) at 14 MPH (12 knots; 6.2 m/s)
Visibility: 6 or more miles (10+ km)
Ceiling: at least 12,000 feet AGL
Clouds: few clouds at 500 feet AGL
scattered clouds at 700 feet AGL
Weather: no significant weather observed at this time

METAR text: ROAH 110600Z 18012KT 9999 FEW005 SCT/// 27/25 Q1010 RMK 2ST005 A2984
Conditions at: ROAH (NAHA (CIV/JASDF), JP) observed 0600 UTC 11 May 2021
Temperature: 27.0°C (81°F)
Dewpoint: 25.0°C (77°F) [RH = 89%]
Pressure (altimeter): 29.82 inches Hg (1010.0 mb)
Winds: from the S (180 degrees) at 14 MPH (12 knots; 6.2 m/s)
Visibility: 6 or more miles (10+ km)
Ceiling: at least 12,000 feet AGL
Clouds: few clouds at 500 feet AGL
Weather: no significant weather observed at this time

METAR text: ROAH 110536Z 19013KT 9999 FEW005 SCT008 28/25 Q1010 RMK 2ST005 4ST008 A2985
Conditions at: ROAH (NAHA (CIV/JASDF), JP) observed 0536 UTC 11 May 2021
Temperature: 28.0°C (82°F)
Dewpoint: 25.0°C (77°F) [RH = 84%]
Pressure (altimeter): 29.82 inches Hg (1010.0 mb)
Winds: from the S (190 degrees) at 15 MPH (13 knots; 6.7 m/s)
Visibility: 6 or more miles (10+ km)
Ceiling: at least 12,000 feet AGL
Clouds: few clouds at 500 feet AGL
scattered clouds at 800 feet AGL
Weather: no significant weather observed at this time

METAR text: ROAH 110530Z 19012KT 9999 SCT005 BKN008 27/25 Q1011 RMK 3ST005 6ST008 A2986
Conditions at: ROAH (NAHA (CIV/JASDF), JP) observed 0530 UTC 11 May 2021
Temperature: 27.0°C (81°F)
Dewpoint: 25.0°C (77°F) [RH = 89%]
Pressure (altimeter): 29.85 inches Hg (1011.0 mb)
Winds: from the S (190 degrees) at 14 MPH (12 knots; 6.2 m/s)
Visibility: 6 or more miles (10+ km)
Ceiling: 800 feet AGL
Clouds: scattered clouds at 500 feet AGL
broken clouds at 800 feet AGL
Weather: no significant weather observed at this time

METAR text: ROAH 110524Z 19012KT 9999 SCT005 BKN009 28/26 Q1011 RMK 3ST005 5CU009 A2986
Conditions at: ROAH (NAHA (CIV/JASDF), JP) observed 0524 UTC 11 May 2021
Temperature: 28.0°C (82°F)
Dewpoint: 26.0°C (79°F) [RH = 89%]
Pressure (altimeter): 29.85 inches Hg (1011.0 mb)
Winds: from the S (190 degrees) at 14 MPH (12 knots; 6.2 m/s)
Visibility: 6 or more miles (10+ km)
Ceiling: 900 feet AGL
Clouds: scattered clouds at 500 feet AGL
broken clouds at 900 feet AGL
Weather: no significant weather observed at this time

METAR text: ROAH 110500Z 18014KT 9999 SCT005 SCT/// 27/25 Q1011 RMK 3ST005 A2986
Conditions at: ROAH (NAHA (CIV/JASDF), JP) observed 0500 UTC 11 May 2021
Temperature: 27.0°C (81°F)
Dewpoint: 25.0°C (77°F) [RH = 89%]
Pressure (altimeter): 29.85 inches Hg (1011.0 mb)
Winds: from the S (180 degrees) at 16 MPH (14 knots; 7.2 m/s)
Visibility: 6 or more miles (10+ km)
Ceiling: at least 12,000 feet AGL
Clouds: scattered clouds at 500 feet AGL
Weather: no significant weather observed at this time

METAR text: ROAH 110430Z 19013KT 9999 FEW005 SCT/// 28/25 Q1011
Conditions at: ROAH (NAHA (CIV/JASDF), JP) observed 0430 UTC 11 May 2021
Temperature: 28.0°C (82°F)
Dewpoint: 25.0°C (77°F) [RH = 84%]
Pressure (altimeter): 29.85 inches Hg (1011.0 mb)
Winds: from the S (190 degrees) at 15 MPH (13 knots; 6.7 m/s)
Visibility: 6 or more miles (10+ km)
Ceiling: at least 12,000 feet AGL
Clouds: few clouds at 500 feet AGL
Weather: no significant weather observed at this time

METAR text: ROAH 110400Z 18014KT 9999 FEW005 SCT/// 28/26 Q1011
Conditions at: ROAH (NAHA (CIV/JASDF), JP) observed 0400 UTC 11 May 2021
Temperature: 28.0°C (82°F)
Dewpoint: 26.0°C (79°F) [RH = 89%]
Pressure (altimeter): 29.85 inches Hg (1011.0 mb)
Winds: from the S (180 degrees) at 16 MPH (14 knots; 7.2 m/s)
Visibility: 6 or more miles (10+ km)
Ceiling: at least 12,000 feet AGL
Clouds: few clouds at 500 feet AGL
Weather: no significant weather observed at this time

METAR text: ROAH 110330Z 18014KT 9999 FEW005 27/25 Q1012 RMK 2ST005 A2989
Conditions at: ROAH (NAHA (CIV/JASDF), JP) observed 0330 UTC 11 May 2021
Temperature: 27.0°C (81°F)
Dewpoint: 25.0°C (77°F) [RH = 89%]
Pressure (altimeter): 29.88 inches Hg (1012.0 mb)
Winds: from the S (180 degrees) at 16 MPH (14 knots; 7.2 m/s)
Visibility: 6 or more miles (10+ km)
Ceiling: at least 12,000 feet AGL
Clouds: few clouds at 500 feet AGL
Weather: no significant weather observed at this time

METAR text: ROAH 110300Z 18013KT 9999 FEW005 27/25 Q1012 RMK 2ST005 A2989
Conditions at: ROAH (NAHA (CIV/JASDF), JP) observed 0300 UTC 11 May 2021
Temperature: 27.0°C (81°F)
Dewpoint: 25.0°C (77°F) [RH = 89%]
Pressure (altimeter): 29.88 inches Hg (1012.0 mb)
Winds: from the S (180 degrees) at 15 MPH (13 knots; 6.7 m/s)
Visibility: 6 or more miles (10+ km)
Ceiling: at least 12,000 feet AGL
Clouds: few clouds at 500 feet AGL
Weather: no significant weather observed at this time

METAR text: ROAH 110230Z 18015KT 9999 FEW006 27/25 Q1012 RMK 1ST006 A2989
Conditions at: ROAH (NAHA (CIV/JASDF), JP) observed 0230 UTC 11 May 2021
Temperature: 27.0°C (81°F)
Dewpoint: 25.0°C (77°F) [RH = 89%]
Pressure (altimeter): 29.88 inches Hg (1012.0 mb)
Winds: from the S (180 degrees) at 17 MPH (15 knots; 7.7 m/s)
Visibility: 6 or more miles (10+ km)
Ceiling: at least 12,000 feet AGL
Clouds: few clouds at 600 feet AGL
Weather: no significant weather observed at this time

METAR text: ROAH 110200Z 18016KT 9999 FEW007 27/25 Q1012 RMK 1ST007 A2988
Conditions at: ROAH (NAHA (CIV/JASDF), JP) observed 0200 UTC 11 May 2021
Temperature: 27.0°C (81°F)
Dewpoint: 25.0°C (77°F) [RH = 89%]
Pressure (altimeter): 29.88 inches Hg (1012.0 mb)
Winds: from the S (180 degrees) at 18 MPH (16 knots; 8.2 m/s)
Visibility: 6 or more miles (10+ km)
Ceiling: at least 12,000 feet AGL
Clouds: few clouds at 700 feet AGL
Weather: no significant weather observed at this time

METAR text: ROAH 110130Z 18015KT 9999 FEW007 SCT210 27/25 Q1012 RMK 1ST007 4AC210 A2990
Conditions at: ROAH (NAHA (CIV/JASDF), JP) observed 0130 UTC 11 May 2021
Temperature: 27.0°C (81°F)
Dewpoint: 25.0°C (77°F) [RH = 89%]
Pressure (altimeter): 29.88 inches Hg (1012.0 mb)
Winds: from the S (180 degrees) at 17 MPH (15 knots; 7.7 m/s)
Visibility: 6 or more miles (10+ km)
Ceiling: at least 12,000 feet AGL
Clouds: few clouds at 700 feet AGL
scattered clouds at 21000 feet AGL
Weather: no significant weather observed at this time

METAR text: ROAH 110100Z 17014KT 9999 FEW004 SCT/// 27/25 Q1012
Conditions at: ROAH (NAHA (CIV/JASDF), JP) observed 0100 UTC 11 May 2021
Temperature: 27.0°C (81°F)
Dewpoint: 25.0°C (77°F) [RH = 89%]
Pressure (altimeter): 29.88 inches Hg (1012.0 mb)
Winds: from the S (170 degrees) at 16 MPH (14 knots; 7.2 m/s)
Visibility: 6 or more miles (10+ km)
Ceiling: at least 12,000 feet AGL
Clouds: few clouds at 400 feet AGL
Weather: no significant weather observed at this time

METAR text: ROAH 110035Z 18015KT 9999 FEW004 SCT008 27/25 Q1012 RMK 1ST004 4ST008 A2990
Conditions at: ROAH (NAHA (CIV/JASDF), JP) observed 0035 UTC 11 May 2021
Temperature: 27.0°C (81°F)
Dewpoint: 25.0°C (77°F) [RH = 89%]
Pressure (altimeter): 29.88 inches Hg (1012.0 mb)
Winds: from the S (180 degrees) at 17 MPH (15 knots; 7.7 m/s)
Visibility: 6 or more miles (10+ km)
Ceiling: at least 12,000 feet AGL
Clouds: few clouds at 400 feet AGL
scattered clouds at 800 feet AGL
Weather: no significant weather observed at this time

METAR text: ROAH 110030Z 17015KT 9999 FEW003 SCT005 BKN008 27/25 Q1012 RMK 1ST003 3ST005 5ST008 A2990
Conditions at: ROAH (NAHA (CIV/JASDF), JP) observed 0030 UTC 11 May 2021
Temperature: 27.0°C (81°F)
Dewpoint: 25.0°C (77°F) [RH = 89%]
Pressure (altimeter): 29.88 inches Hg (1012.0 mb)
Winds: from the S (170 degrees) at 17 MPH (15 knots; 7.7 m/s)
Visibility: 6 or more miles (10+ km)
Ceiling: 800 feet AGL
Clouds: few clouds at 300 feet AGL
scattered clouds at 500 feet AGL
broken clouds at 800 feet AGL
Weather: no significant weather observed at this time

METAR text: ROAH 110013Z 18013KT 9999 FEW003 SCT005 BKN008 26/25 Q1012 RMK 1ST003 3ST005 5ST008 A2991
Conditions at: ROAH (NAHA (CIV/JASDF), JP) observed 0013 UTC 11 May 2021
Temperature: 26.0°C (79°F)
Dewpoint: 25.0°C (77°F) [RH = 94%]
Pressure (altimeter): 29.88 inches Hg (1012.0 mb)
Winds: from the S (180 degrees) at 15 MPH (13 knots; 6.7 m/s)
Visibility: 6 or more miles (10+ km)
Ceiling: 800 feet AGL
Clouds: few clouds at 300 feet AGL
scattered clouds at 500 feet AGL
broken clouds at 800 feet AGL
Weather: no significant weather observed at this time

METAR text: ROAH 110000Z 18014KT 9999 FEW005 SCT010 BKN025 26/25 Q1012 RMK 1ST005 3CU010 5CU025 A2991
Conditions at: ROAH (NAHA (CIV/JASDF), JP) observed 0000 UTC 11 May 2021
Temperature: 26.0°C (79°F)
Dewpoint: 25.0°C (77°F) [RH = 94%]
Pressure (altimeter): 29.88 inches Hg (1012.0 mb)
Winds: from the S (180 degrees) at 16 MPH (14 knots; 7.2 m/s)
Visibility: 6 or more miles (10+ km)
Ceiling: 2500 feet AGL
Clouds: few clouds at 500 feet AGL
scattered clouds at 1000 feet AGL
broken clouds at 2500 feet AGL
Weather: no significant weather observed at this time

METAR text: ROAH 102330Z 17014KT 9999 FEW005 SCT007 BKN010 26/25 Q1012 RMK 1ST005 4ST007 6CU010 A2990
Conditions at: ROAH (NAHA (CIV/JASDF), JP) observed 2330 UTC 10 May 2021
Temperature: 26.0°C (79°F)
Dewpoint: 25.0°C (77°F) [RH = 94%]
Pressure (altimeter): 29.88 inches Hg (1012.0 mb)
Winds: from the S (170 degrees) at 16 MPH (14 knots; 7.2 m/s)
Visibility: 6 or more miles (10+ km)
Ceiling: 1000 feet AGL
Clouds: few clouds at 500 feet AGL
scattered clouds at 700 feet AGL
broken clouds at 1000 feet AGL
Weather: no significant weather observed at this time

METAR text: ROAH 102300Z 17010KT 9999 FEW003 SCT007 26/24 Q1012 RMK 1ST003 3ST007 A2989
Conditions at: ROAH (NAHA (CIV/JASDF), JP) observed 2300 UTC 10 May 2021
Temperature: 26.0°C (79°F)
Dewpoint: 24.0°C (75°F) [RH = 89%]
Pressure (altimeter): 29.88 inches Hg (1012.0 mb)
Winds: from the S (170 degrees) at 12 MPH (10 knots; 5.1 m/s)
Visibility: 6 or more miles (10+ km)
Ceiling: at least 12,000 feet AGL
Clouds: few clouds at 300 feet AGL
scattered clouds at 700 feet AGL
Weather: no significant weather observed at this time

METAR text: ROAH 102230Z 17011KT 9999 FEW003 SCT006 BKN010 25/24 Q1012 RMK 1ST003 3ST006 5CU010 A2989
Conditions at: ROAH (NAHA (CIV/JASDF), JP) observed 2230 UTC 10 May 2021
Temperature: 25.0°C (77°F)
Dewpoint: 24.0°C (75°F) [RH = 94%]
Pressure (altimeter): 29.88 inches Hg (1012.0 mb)
Winds: from the S (170 degrees) at 13 MPH (11 knots; 5.7 m/s)
Visibility: 6 or more miles (10+ km)
Ceiling: 1000 feet AGL
Clouds: few clouds at 300 feet AGL
scattered clouds at 600 feet AGL
broken clouds at 1000 feet AGL
Weather: no significant weather observed at this time

METAR text: ROAH 102200Z 17009KT 9999 FEW003 SCT005 BKN/// 25/24 Q1012 RMK 1ST003 3ST005 A2989
Conditions at: ROAH (NAHA (CIV/JASDF), JP) observed 2200 UTC 10 May 2021
Temperature: 25.0°C (77°F)
Dewpoint: 24.0°C (75°F) [RH = 94%]
Pressure (altimeter): 29.88 inches Hg (1012.0 mb)
Winds: from the S (170 degrees) at 10 MPH (9 knots; 4.6 m/s)
Visibility: 6 or more miles (10+ km)
Ceiling: at least 12,000 feet AGL
Clouds: few clouds at 300 feet AGL
scattered clouds at 500 feet AGL
Weather: no significant weather observed at this time

METAR text: ROAH 102137Z 16009KT 9999 FEW003 SCT007 BKN015 25/24 Q1011 RMK 1ST003 3ST007 5CU015 A2987
Conditions at: ROAH (NAHA (CIV/JASDF), JP) observed 2137 UTC 10 May 2021
Temperature: 25.0°C (77°F)
Dewpoint: 24.0°C (75°F) [RH = 94%]
Pressure (altimeter): 29.85 inches Hg (1011.0 mb)
Winds: from the SSE (160 degrees) at 10 MPH (9 knots; 4.6 m/s)
Visibility: 6 or more miles (10+ km)
Ceiling: 1500 feet AGL
Clouds: few clouds at 300 feet AGL
scattered clouds at 700 feet AGL
broken clouds at 1500 feet AGL
Weather: no significant weather observed at this time

METAR text: ROAH 102130Z 16010KT 9999 FEW003 SCT006 BKN009 25/24 Q1011 RMK 1ST003 3ST006 5CU009 A2987
Conditions at: ROAH (NAHA (CIV/JASDF), JP) observed 2130 UTC 10 May 2021
Temperature: 25.0°C (77°F)
Dewpoint: 24.0°C (75°F) [RH = 94%]
Pressure (altimeter): 29.85 inches Hg (1011.0 mb)
Winds: from the SSE (160 degrees) at 12 MPH (10 knots; 5.1 m/s)
Visibility: 6 or more miles (10+ km)
Ceiling: 900 feet AGL
Clouds: few clouds at 300 feet AGL
scattered clouds at 600 feet AGL
broken clouds at 900 feet AGL
Weather: no significant weather observed at this time

METAR text: ROAH 102100Z 16009KT 9999 FEW003 SCT005 BKN009 24/24 Q1011 RMK 1ST003 3ST005 5CU009 A2986
Conditions at: ROAH (NAHA (CIV/JASDF), JP) observed 2100 UTC 10 May 2021
Temperature: 24.0°C (75°F)
Dewpoint: 24.0°C (75°F) [RH = 100%]
Pressure (altimeter): 29.85 inches Hg (1011.0 mb)
Winds: from the SSE (160 degrees) at 10 MPH (9 knots; 4.6 m/s)
Visibility: 6 or more miles (10+ km)
Ceiling: 900 feet AGL
Clouds: few clouds at 300 feet AGL
scattered clouds at 500 feet AGL
broken clouds at 900 feet AGL
Weather: no significant weather observed at this time

METAR text: ROAH 102030Z 15007KT 9999 FEW003 SCT005 BKN009 24/24 Q1011 RMK 1ST003 3ST005 5CU009 A2986
Conditions at: ROAH (NAHA (CIV/JASDF), JP) observed 2030 UTC 10 May 2021
Temperature: 24.0°C (75°F)
Dewpoint: 24.0°C (75°F) [RH = 100%]
Pressure (altimeter): 29.85 inches Hg (1011.0 mb)
Winds: from the SSE (150 degrees) at 8 MPH (7 knots; 3.6 m/s)
Visibility: 6 or more miles (10+ km)
Ceiling: 900 feet AGL
Clouds: few clouds at 300 feet AGL
scattered clouds at 500 feet AGL
broken clouds at 900 feet AGL
Weather: no significant weather observed at this time

METAR text: ROAH 102020Z 15008KT 9999 FEW004 SCT006 BKN009 24/24 Q1011 RMK 1ST004 3ST006 5CU009 A2986
Conditions at: ROAH (NAHA (CIV/JASDF), JP) observed 2020 UTC 10 May 2021
Temperature: 24.0°C (75°F)
Dewpoint: 24.0°C (75°F) [RH = 100%]
Pressure (altimeter): 29.85 inches Hg (1011.0 mb)
Winds: from the SSE (150 degrees) at 9 MPH (8 knots; 4.1 m/s)
Visibility: 6 or more miles (10+ km)
Ceiling: 900 feet AGL
Clouds: few clouds at 400 feet AGL
scattered clouds at 600 feet AGL
broken clouds at 900 feet AGL
Weather: no significant weather observed at this time

METAR text: ROAH 102000Z 15009KT 9999 FEW004 SCT007 BKN013 25/24 Q1011 RMK 1ST004 3ST007 6CU013 A2987
Conditions at: ROAH (NAHA (CIV/JASDF), JP) observed 2000 UTC 10 May 2021
Temperature: 25.0°C (77°F)
Dewpoint: 24.0°C (75°F) [RH = 94%]
Pressure (altimeter): 29.85 inches Hg (1011.0 mb)
Winds: from the SSE (150 degrees) at 10 MPH (9 knots; 4.6 m/s)
Visibility: 6 or more miles (10+ km)
Ceiling: 1300 feet AGL
Clouds: few clouds at 400 feet AGL
scattered clouds at 700 feet AGL
broken clouds at 1300 feet AGL
Weather: no significant weather observed at this time

METAR text: ROAH 101930Z 15007KT 9999 FEW004 SCT007 BKN014 24/24 Q1011 RMK 1ST004 3ST007 6CU014 A2987
Conditions at: ROAH (NAHA (CIV/JASDF), JP) observed 1930 UTC 10 May 2021
Temperature: 24.0°C (75°F)
Dewpoint: 24.0°C (75°F) [RH = 100%]
Pressure (altimeter): 29.85 inches Hg (1011.0 mb)
Winds: from the SSE (150 degrees) at 8 MPH (7 knots; 3.6 m/s)
Visibility: 6 or more miles (10+ km)
Ceiling: 1400 feet AGL
Clouds: few clouds at 400 feet AGL
scattered clouds at 700 feet AGL
broken clouds at 1400 feet AGL
Weather: no significant weather observed at this time

METAR text: ROAH 101900Z 16008KT 9999 FEW005 SCT007 BKN015 24/24 Q1011 RMK 1ST005 3ST007 5CU015 A2987
Conditions at: ROAH (NAHA (CIV/JASDF), JP) observed 1900 UTC 10 May 2021
Temperature: 24.0°C (75°F)
Dewpoint: 24.0°C (75°F) [RH = 100%]
Pressure (altimeter): 29.85 inches Hg (1011.0 mb)
Winds: from the SSE (160 degrees) at 9 MPH (8 knots; 4.1 m/s)
Visibility: 6 or more miles (10+ km)
Ceiling: 1500 feet AGL
Clouds: few clouds at 500 feet AGL
scattered clouds at 700 feet AGL
broken clouds at 1500 feet AGL
Weather: no significant weather observed at this time

METAR text: ROAH 101830Z 17010KT 9999 FEW005 SCT010 24/23 Q1011 RMK 1ST005 4CU010 A2986
Conditions at: ROAH (NAHA (CIV/JASDF), JP) observed 1830 UTC 10 May 2021
Temperature: 24.0°C (75°F)
Dewpoint: 23.0°C (73°F) [RH = 94%]
Pressure (altimeter): 29.85 inches Hg (1011.0 mb)
Winds: from the S (170 degrees) at 12 MPH (10 knots; 5.1 m/s)
Visibility: 6 or more miles (10+ km)
Ceiling: at least 12,000 feet AGL
Clouds: few clouds at 500 feet AGL
scattered clouds at 1000 feet AGL
Weather: no significant weather observed at this time

METAR text: ROAH 101800Z 17010KT 9999 FEW005 24/24 Q1011 RMK 1ST005 A2986
Conditions at: ROAH (NAHA (CIV/JASDF), JP) observed 1800 UTC 10 May 2021
Temperature: 24.0°C (75°F)
Dewpoint: 24.0°C (75°F) [RH = 100%]
Pressure (altimeter): 29.85 inches Hg (1011.0 mb)
Winds: from the S (170 degrees) at 12 MPH (10 knots; 5.1 m/s)
Visibility: 6 or more miles (10+ km)
Ceiling: at least 12,000 feet AGL
Clouds: few clouds at 500 feet AGL
Weather: no significant weather observed at this time

METAR text: ROAH 101730Z 17011KT 9999 FEW005 24/23 Q1011 RMK 1ST005 A2985
Conditions at: ROAH (NAHA (CIV/JASDF), JP) observed 1730 UTC 10 May 2021
Temperature: 24.0°C (75°F)
Dewpoint: 23.0°C (73°F) [RH = 94%]
Pressure (altimeter): 29.85 inches Hg (1011.0 mb)
Winds: from the S (170 degrees) at 13 MPH (11 knots; 5.7 m/s)
Visibility: 6 or more miles (10+ km)
Ceiling: at least 12,000 feet AGL
Clouds: few clouds at 500 feet AGL
Weather: no significant weather observed at this time

METAR text: ROAH 101700Z 17012KT 9999 FEW005 24/23 Q1011 RMK 1ST005 A2986
Conditions at: ROAH (NAHA (CIV/JASDF), JP) observed 1700 UTC 10 May 2021
Temperature: 24.0°C (75°F)
Dewpoint: 23.0°C (73°F) [RH = 94%]
Pressure (altimeter): 29.85 inches Hg (1011.0 mb)
Winds: from the S (170 degrees) at 14 MPH (12 knots; 6.2 m/s)
Visibility: 6 or more miles (10+ km)
Ceiling: at least 12,000 feet AGL
Clouds: few clouds at 500 feet AGL
Weather: no significant weather observed at this time

METAR text: ROAH 101630Z 16011KT 9999 FEW006 24/23 Q1011 RMK 2ST006 A2985
Conditions at: ROAH (NAHA (CIV/JASDF), JP) observed 1630 UTC 10 May 2021
Temperature: 24.0°C (75°F)
Dewpoint: 23.0°C (73°F) [RH = 94%]
Pressure (altimeter): 29.85 inches Hg (1011.0 mb)
Winds: from the SSE (160 degrees) at 13 MPH (11 knots; 5.7 m/s)
Visibility: 6 or more miles (10+ km)
Ceiling: at least 12,000 feet AGL
Clouds: few clouds at 600 feet AGL
Weather: no significant weather observed at this time

METAR text: ROAH 101600Z 16010KT 9999 FEW015 24/23 Q1011 RMK 1CU015 A2986
Conditions at: ROAH (NAHA (CIV/JASDF), JP) observed 1600 UTC 10 May 2021
Temperature: 24.0°C (75°F)
Dewpoint: 23.0°C (73°F) [RH = 94%]
Pressure (altimeter): 29.85 inches Hg (1011.0 mb)
Winds: from the SSE (160 degrees) at 12 MPH (10 knots; 5.1 m/s)
Visibility: 6 or more miles (10+ km)
Ceiling: at least 12,000 feet AGL
Clouds: few clouds at 1500 feet AGL
Weather: no significant weather observed at this time

METAR text: ROAH 101530Z 16011KT 9999 FEW015 SCT/// 24/22 Q1011 RMK 1CU015 A2987
Conditions at: ROAH (NAHA (CIV/JASDF), JP) observed 1530 UTC 10 May 2021
Temperature: 24.0°C (75°F)
Dewpoint: 22.0°C (72°F) [RH = 89%]
Pressure (altimeter): 29.85 inches Hg (1011.0 mb)
Winds: from the SSE (160 degrees) at 13 MPH (11 knots; 5.7 m/s)
Visibility: 6 or more miles (10+ km)
Ceiling: at least 12,000 feet AGL
Clouds: few clouds at 1500 feet AGL
Weather: no significant weather observed at this time

METAR text: ROAH 101500Z 17011KT CAVOK 24/22 Q1011 RMK A2987
Conditions at: ROAH (NAHA (CIV/JASDF), JP) observed 1500 UTC 10 May 2021
Temperature: 24.0°C (75°F)
Dewpoint: 22.0°C (72°F) [RH = 89%]
Pressure (altimeter): 29.85 inches Hg (1011.0 mb)
Winds: from the S (170 degrees) at 13 MPH (11 knots; 5.7 m/s)
Visibility: 6 or more miles (10+ km)
Ceiling: ceiling and visibility are OK
Clouds: unknown
Weather: no significant weather observed at this time

METAR text: ROAH 101430Z 18009KT CAVOK 24/22 Q1011
Conditions at: ROAH (NAHA (CIV/JASDF), JP) observed 1430 UTC 10 May 2021
Temperature: 24.0°C (75°F)
Dewpoint: 22.0°C (72°F) [RH = 89%]
Pressure (altimeter): 29.85 inches Hg (1011.0 mb)
Winds: from the S (180 degrees) at 10 MPH (9 knots; 4.6 m/s)
Visibility: 6 or more miles (10+ km)
Ceiling: ceiling and visibility are OK
Clouds: unknown
Weather: no significant weather observed at this time

METAR text: ROAH 101400Z 18008KT CAVOK 24/22 Q1011 RMK A2986
Conditions at: ROAH (NAHA (CIV/JASDF), JP) observed 1400 UTC 10 May 2021
Temperature: 24.0°C (75°F)
Dewpoint: 22.0°C (72°F) [RH = 89%]
Pressure (altimeter): 29.85 inches Hg (1011.0 mb)
Winds: from the S (180 degrees) at 9 MPH (8 knots; 4.1 m/s)
Visibility: 6 or more miles (10+ km)
Ceiling: ceiling and visibility are OK
Clouds: unknown
Weather: no significant weather observed at this time

METAR text: ROAH 101330Z 18014KT 9999 FEW010 BKN/// 24/23 Q1011 RMK 1CU010 A2986
Conditions at: ROAH (NAHA (CIV/JASDF), JP) observed 1330 UTC 10 May 2021
Temperature: 24.0°C (75°F)
Dewpoint: 23.0°C (73°F) [RH = 94%]
Pressure (altimeter): 29.85 inches Hg (1011.0 mb)
Winds: from the S (180 degrees) at 16 MPH (14 knots; 7.2 m/s)
Visibility: 6 or more miles (10+ km)
Ceiling: at least 12,000 feet AGL
Clouds: few clouds at 1000 feet AGL
Weather: no significant weather observed at this time

METAR text: ROAH 101300Z 17010KT 9999 FEW010 BKN/// 24/23 Q1011
Conditions at: ROAH (NAHA (CIV/JASDF), JP) observed 1300 UTC 10 May 2021
Temperature: 24.0°C (75°F)
Dewpoint: 23.0°C (73°F) [RH = 94%]
Pressure (altimeter): 29.85 inches Hg (1011.0 mb)
Winds: from the S (170 degrees) at 12 MPH (10 knots; 5.1 m/s)
Visibility: 6 or more miles (10+ km)
Ceiling: at least 12,000 feet AGL
Clouds: few clouds at 1000 feet AGL
Weather: no significant weather observed at this time

METAR text: ROAH 101230Z 19019KT 9999 FEW010 BKN/// 25/23 Q1011 RMK 1CU010 A2986
Conditions at: ROAH (NAHA (CIV/JASDF), JP) observed 1230 UTC 10 May 2021
Temperature: 25.0°C (77°F)
Dewpoint: 23.0°C (73°F) [RH = 89%]
Pressure (altimeter): 29.85 inches Hg (1011.0 mb)
Winds: from the S (190 degrees) at 22 MPH (19 knots; 9.8 m/s)
Visibility: 6 or more miles (10+ km)
Ceiling: at least 12,000 feet AGL
Clouds: few clouds at 1000 feet AGL
Weather: no significant weather observed at this time

METAR text: ROAH 101200Z 20018KT 9999 FEW005 SCT200 BKN220 25/24 Q1011 RMK 1ST005 3AC200 6AC220 A2986 MOD TURB OBS AT 1135Z 15NM E ROAH BTN FL170 AND FL190 B738
Conditions at: ROAH (NAHA (CIV/JASDF), JP) observed 1200 UTC 10 May 2021
Temperature: 25.0°C (77°F)
Dewpoint: 24.0°C (75°F) [RH = 94%]
Pressure (altimeter): 29.85 inches Hg (1011.0 mb)
Winds: from the SSW (200 degrees) at 21 MPH (18 knots; 9.3 m/s)
Visibility: 6 or more miles (10+ km)
Ceiling: 22000 feet AGL
Clouds: few clouds at 500 feet AGL
scattered clouds at 20000 feet AGL
broken clouds at 22000 feet AGL
Weather: no significant weather observed at this time

METAR text: ROAH 101130Z 19010KT 9999 -RA FEW005 SCT007 BKN100 24/24 Q1011 RMK 1ST005 3ST007 5AS100 A2987
Conditions at: ROAH (NAHA (CIV/JASDF), JP) observed 1130 UTC 10 May 2021
Temperature: 24.0°C (75°F)
Dewpoint: 24.0°C (75°F) [RH = 100%]
Pressure (altimeter): 29.85 inches Hg (1011.0 mb)
Winds: from the S (190 degrees) at 12 MPH (10 knots; 5.1 m/s)
Visibility: 6 or more miles (10+ km)
Ceiling: 10000 feet AGL
Clouds: few clouds at 500 feet AGL
scattered clouds at 700 feet AGL
broken clouds at 10000 feet AGL
Weather: -RA  (light rain)

METAR text: ROAH 101100Z 16010KT 9000 RA FEW005 SCT007 BKN100 25/24 Q1011 RMK 1ST005 3ST007 6AS100 A2985
Conditions at: ROAH (NAHA (CIV/JASDF), JP) observed 1100 UTC 10 May 2021
Temperature: 25.0°C (77°F)
Dewpoint: 24.0°C (75°F) [RH = 94%]
Pressure (altimeter): 29.85 inches Hg (1011.0 mb)
Winds: from the SSE (160 degrees) at 12 MPH (10 knots; 5.1 m/s)
Visibility: 6 miles ( 9 km)
Ceiling: 10000 feet AGL
Clouds: few clouds at 500 feet AGL
scattered clouds at 700 feet AGL
broken clouds at 10000 feet AGL
Weather: RA  (moderate rain)

METAR text: ROAH 101038Z 15006KT 090V210 9999 -RA FEW004 SCT007 BKN009 25/24 Q1011 RMK 1ST004 3ST007 5CU009 A2985
Conditions at: ROAH (NAHA (CIV/JASDF), JP) observed 1038 UTC 10 May 2021
Temperature: 25.0°C (77°F)
Dewpoint: 24.0°C (75°F) [RH = 94%]
Pressure (altimeter): 29.85 inches Hg (1011.0 mb)
Winds: from the SSE (150 degrees) at 7 MPH (6 knots; 3.1 m/s)
Visibility: 6 or more miles (10+ km)
Ceiling: 900 feet AGL
Clouds: few clouds at 400 feet AGL
scattered clouds at 700 feet AGL
broken clouds at 900 feet AGL
Weather: -RA  (light rain)

METAR text: ROAH 101030Z 13007KT 9999 -RA FEW008 SCT010 BKN080 24/24 Q1011 RMK 1ST008 3CU010 5AC080 A2986
Conditions at: ROAH (NAHA (CIV/JASDF), JP) observed 1030 UTC 10 May 2021
Temperature: 24.0°C (75°F)
Dewpoint: 24.0°C (75°F) [RH = 100%]
Pressure (altimeter): 29.85 inches Hg (1011.0 mb)
Winds: from the SE (130 degrees) at 8 MPH (7 knots; 3.6 m/s)
Visibility: 6 or more miles (10+ km)
Ceiling: 8000 feet AGL
Clouds: few clouds at 800 feet AGL
scattered clouds at 1000 feet AGL
broken clouds at 8000 feet AGL
Weather: -RA  (light rain)

METAR text: ROAH 101000Z 15008KT 9999 -RA FEW015 SCT050 BKN070 24/23 Q1010 RMK 1CU015 3SC050 5AC070 A2984
Conditions at: ROAH (NAHA (CIV/JASDF), JP) observed 1000 UTC 10 May 2021
Temperature: 24.0°C (75°F)
Dewpoint: 23.0°C (73°F) [RH = 94%]
Pressure (altimeter): 29.82 inches Hg (1010.0 mb)
Winds: from the SSE (150 degrees) at 9 MPH (8 knots; 4.1 m/s)
Visibility: 6 or more miles (10+ km)
Ceiling: 7000 feet AGL
Clouds: few clouds at 1500 feet AGL
scattered clouds at 5000 feet AGL
broken clouds at 7000 feet AGL
Weather: -RA  (light rain)

METAR text: ROAH 100930Z 17005KT 6000 RA FEW015 SCT060 BKN100 24/23 Q1011 RMK 1CU015 3SC060 7AS100 A2987
Conditions at: ROAH (NAHA (CIV/JASDF), JP) observed 0930 UTC 10 May 2021
Temperature: 24.0°C (75°F)
Dewpoint: 23.0°C (73°F) [RH = 94%]
Pressure (altimeter): 29.85 inches Hg (1011.0 mb)
Winds: from the S (170 degrees) at 6 MPH (5 knots; 2.6 m/s)
Visibility: 4 miles ( 6 km)
Ceiling: 10000 feet AGL
Clouds: few clouds at 1500 feet AGL
scattered clouds at 6000 feet AGL
broken clouds at 10000 feet AGL
Weather: RA  (moderate rain)

METAR text: ROAH 100900Z VRB02KT 8000 SHRA FEW010 FEW020CB SCT060 BKN080 24/23 Q1011 RMK 1CU010 2CB020 3SC060 6AC080 A2987 CB 10KM W-NW MOV E
Conditions at: ROAH (NAHA (CIV/JASDF), JP) observed 0900 UTC 10 May 2021
Temperature: 24.0°C (75°F)
Dewpoint: 23.0°C (73°F) [RH = 94%]
Pressure (altimeter): 29.85 inches Hg (1011.0 mb)
Winds: variable direction winds at 2 MPH (2 knots; 1.0 m/s)
Visibility: 5 miles ( 8 km)
Ceiling: 8000 feet AGL
Clouds: few clouds at 1000 feet AGL
few clouds at 2000 feet AGL
scattered clouds at 6000 feet AGL
broken clouds at 8000 feet AGL
Weather: SHRA  (rain showers)

METAR text: ROAH 100839Z VRB02KT 8000 TSRA FEW010 SCT020CB BKN090 24/23 Q1012 RMK 1CU010 3CB020 7AC090 A2988 FBL TS 5KM W-NW MOV E
Conditions at: ROAH (NAHA (CIV/JASDF), JP) observed 0839 UTC 10 May 2021
Temperature: 24.0°C (75°F)
Dewpoint: 23.0°C (73°F) [RH = 94%]
Pressure (altimeter): 29.88 inches Hg (1012.0 mb)
Winds: variable direction winds at 2 MPH (2 knots; 1.0 m/s)
Visibility: 5 miles ( 8 km)
Ceiling: 9000 feet AGL
Clouds: few clouds at 1000 feet AGL
scattered clouds at 2000 feet AGL
broken clouds at 9000 feet AGL
Weather: TSRA  (rain associated with thunderstorm(s))

METAR text: ROAH 100830Z 19002KT 9999 -TSRA FEW010 SCT020CB BKN090 24/23 Q1011 RMK 1CU010 3CB020 7AC090 A2988 MOD TURB OBS AT 0812Z 65NM NE ROAH BTN FL200 AND 12000FT B738 FBL TS 8KM NW MOV E
Conditions at: ROAH (NAHA (CIV/JASDF), JP) observed 0830 UTC 10 May 2021
Temperature: 24.0°C (75°F)
Dewpoint: 23.0°C (73°F) [RH = 94%]
Pressure (altimeter): 29.85 inches Hg (1011.0 mb)
Winds: from the S (190 degrees) at 2 MPH (2 knots; 1.0 m/s)
Visibility: 6 or more miles (10+ km)
Ceiling: 9000 feet AGL
Clouds: few clouds at 1000 feet AGL
scattered clouds at 2000 feet AGL
broken clouds at 9000 feet AGL
Weather: -TSRA  (light rain associated with thunderstorm(s))

METAR text: ROAH 100826Z 20002KT 9999 -SHRA FEW010 FEW020CB BKN090 24/23 Q1011 RMK 1CU010 2CB020 7AC090 A2988 CB 15KM NW-N MOV E
Conditions at: ROAH (NAHA (CIV/JASDF), JP) observed 0826 UTC 10 May 2021
Temperature: 24.0°C (75°F)
Dewpoint: 23.0°C (73°F) [RH = 94%]
Pressure (altimeter): 29.85 inches Hg (1011.0 mb)
Winds: from the SSW (200 degrees) at 2 MPH (2 knots; 1.0 m/s)
Visibility: 6 or more miles (10+ km)
Ceiling: 9000 feet AGL
Clouds: few clouds at 1000 feet AGL
few clouds at 2000 feet AGL
broken clouds at 9000 feet AGL
Weather: -SHRA  (light rain showers)

METAR text: ROAH 100800Z 00000KT 9999 -TSRA FEW010 SCT020CB BKN090 24/23 Q1011 RMK 1CU010 3CB020 7AC090 A2988 FBL TS 8KM NW-N MOV E
Conditions at: ROAH (NAHA (CIV/JASDF), JP) observed 0800 UTC 10 May 2021
Temperature: 24.0°C (75°F)
Dewpoint: 23.0°C (73°F) [RH = 94%]
Pressure (altimeter): 29.85 inches Hg (1011.0 mb)
Winds: calm
Visibility: 6 or more miles (10+ km)
Ceiling: 9000 feet AGL
Clouds: few clouds at 1000 feet AGL
scattered clouds at 2000 feet AGL
broken clouds at 9000 feet AGL
Weather: -TSRA  (light rain associated with thunderstorm(s))

METAR text: ROAH 100730Z VRB01KT 9999 -TSRA FEW010 SCT020CB BKN090 24/23 Q1011 RMK 1CU010 3CB020 5AC090 A2987 FBL TS 5KM NW MOV E
Conditions at: ROAH (NAHA (CIV/JASDF), JP) observed 0730 UTC 10 May 2021
Temperature: 24.0°C (75°F)
Dewpoint: 23.0°C (73°F) [RH = 94%]
Pressure (altimeter): 29.85 inches Hg (1011.0 mb)
Winds: variable direction winds at 1 MPH (1 knots; 0.5 m/s)
Visibility: 6 or more miles (10+ km)
Ceiling: 9000 feet AGL
Clouds: few clouds at 1000 feet AGL
scattered clouds at 2000 feet AGL
broken clouds at 9000 feet AGL
Weather: -TSRA  (light rain associated with thunderstorm(s))

METAR text: ROAH 100715Z 19002KT 9999 -TSRA FEW010 FEW020CB SCT090 BKN130 24/23 Q1011 RMK 1CU010 2CB020 3AC090 6AC130 A2987 FBL TS 20KM W MOV E
Conditions at: ROAH (NAHA (CIV/JASDF), JP) observed 0715 UTC 10 May 2021
Temperature: 24.0°C (75°F)
Dewpoint: 23.0°C (73°F) [RH = 94%]
Pressure (altimeter): 29.85 inches Hg (1011.0 mb)
Winds: from the S (190 degrees) at 2 MPH (2 knots; 1.0 m/s)
Visibility: 6 or more miles (10+ km)
Ceiling: 13000 feet AGL
Clouds: few clouds at 1000 feet AGL
few clouds at 2000 feet AGL
scattered clouds at 9000 feet AGL
broken clouds at 13000 feet AGL
Weather: -TSRA  (light rain associated with thunderstorm(s))

METAR text: ROAH 100700Z 20003KT 9999 -SHRA FEW010 SCT060 BKN130 24/23 Q1011 RMK 1CU010 3SC060 6AC130 A2987
Conditions at: ROAH (NAHA (CIV/JASDF), JP) observed 0700 UTC 10 May 2021
Temperature: 24.0°C (75°F)
Dewpoint: 23.0°C (73°F) [RH = 94%]
Pressure (altimeter): 29.85 inches Hg (1011.0 mb)
Winds: from the SSW (200 degrees) at 3 MPH (3 knots; 1.5 m/s)
Visibility: 6 or more miles (10+ km)
Ceiling: 13000 feet AGL
Clouds: few clouds at 1000 feet AGL
scattered clouds at 6000 feet AGL
broken clouds at 13000 feet AGL
Weather: -SHRA  (light rain showers)

METAR text: ROAH 100630Z 20005KT 9999 -SHRA FEW010 SCT090 BKN130 25/23 Q1011 RMK 1CU010 4AC090 6AC130 A2987
Conditions at: ROAH (NAHA (CIV/JASDF), JP) observed 0630 UTC 10 May 2021
Temperature: 25.0°C (77°F)
Dewpoint: 23.0°C (73°F) [RH = 89%]
Pressure (altimeter): 29.85 inches Hg (1011.0 mb)
Winds: from the SSW (200 degrees) at 6 MPH (5 knots; 2.6 m/s)
Visibility: 6 or more miles (10+ km)
Ceiling: 13000 feet AGL
Clouds: few clouds at 1000 feet AGL
scattered clouds at 9000 feet AGL
broken clouds at 13000 feet AGL
Weather: -SHRA  (light rain showers)

METAR text: ROAH 100600Z 21006KT 9999 -SHRA FEW010 SCT060 BKN130 25/23 Q1011 RMK 1CU010 3SC060 6AC130 A2987
Conditions at: ROAH (NAHA (CIV/JASDF), JP) observed 0600 UTC 10 May 2021
Temperature: 25.0°C (77°F)
Dewpoint: 23.0°C (73°F) [RH = 89%]
Pressure (altimeter): 29.85 inches Hg (1011.0 mb)
Winds: from the SSW (210 degrees) at 7 MPH (6 knots; 3.1 m/s)
Visibility: 6 or more miles (10+ km)
Ceiling: 13000 feet AGL
Clouds: few clouds at 1000 feet AGL
scattered clouds at 6000 feet AGL
broken clouds at 13000 feet AGL
Weather: -SHRA  (light rain showers)

METAR text: ROAH 100530Z 19008KT 9999 -RA FEW010 BKN130 25/23 Q1011 RMK 1CU010 6AC130 A2986
Conditions at: ROAH (NAHA (CIV/JASDF), JP) observed 0530 UTC 10 May 2021
Temperature: 25.0°C (77°F)
Dewpoint: 23.0°C (73°F) [RH = 89%]
Pressure (altimeter): 29.85 inches Hg (1011.0 mb)
Winds: from the S (190 degrees) at 9 MPH (8 knots; 4.1 m/s)
Visibility: 6 or more miles (10+ km)
Ceiling: 13000 feet AGL
Clouds: few clouds at 1000 feet AGL
broken clouds at 13000 feet AGL
Weather: -RA  (light rain)

METAR text: ROAH 100500Z 18008KT 9999 FEW010 BKN130 26/23 Q1011 RMK 1CU010 6AC130 A2985
Conditions at: ROAH (NAHA (CIV/JASDF), JP) observed 0500 UTC 10 May 2021
Temperature: 26.0°C (79°F)
Dewpoint: 23.0°C (73°F) [RH = 84%]
Pressure (altimeter): 29.85 inches Hg (1011.0 mb)
Winds: from the S (180 degrees) at 9 MPH (8 knots; 4.1 m/s)
Visibility: 6 or more miles (10+ km)
Ceiling: 13000 feet AGL
Clouds: few clouds at 1000 feet AGL
broken clouds at 13000 feet AGL
Weather: no significant weather observed at this time

METAR text: ROAH 100430Z 18008KT 9999 VCSH FEW010 BKN130 25/23 Q1011 RMK 1CU010 6AC130 A2986
Conditions at: ROAH (NAHA (CIV/JASDF), JP) observed 0430 UTC 10 May 2021
Temperature: 25.0°C (77°F)
Dewpoint: 23.0°C (73°F) [RH = 89%]
Pressure (altimeter): 29.85 inches Hg (1011.0 mb)
Winds: from the S (180 degrees) at 9 MPH (8 knots; 4.1 m/s)
Visibility: 6 or more miles (10+ km)
Ceiling: 13000 feet AGL
Clouds: few clouds at 1000 feet AGL
broken clouds at 13000 feet AGL
Weather: VCSH  (showers in vicinity)

METAR text: ROAH 100400Z 19008KT 9999 -RA FEW010 BKN130 25/23 Q1011 RMK 1CU010 6AC130 A2987
Conditions at: ROAH (NAHA (CIV/JASDF), JP) observed 0400 UTC 10 May 2021
Temperature: 25.0°C (77°F)
Dewpoint: 23.0°C (73°F) [RH = 89%]
Pressure (altimeter): 29.85 inches Hg (1011.0 mb)
Winds: from the S (190 degrees) at 9 MPH (8 knots; 4.1 m/s)
Visibility: 6 or more miles (10+ km)
Ceiling: 13000 feet AGL
Clouds: few clouds at 1000 feet AGL
broken clouds at 13000 feet AGL
Weather: -RA  (light rain)

METAR text: ROAH 100330Z 19008KT 9999 FEW010 SCT120 BKN160 25/23 Q1012 RMK 1CU010 3AC120 6AC160 A2988
Conditions at: ROAH (NAHA (CIV/JASDF), JP) observed 0330 UTC 10 May 2021
Temperature: 25.0°C (77°F)
Dewpoint: 23.0°C (73°F) [RH = 89%]
Pressure (altimeter): 29.88 inches Hg (1012.0 mb)
Winds: from the S (190 degrees) at 9 MPH (8 knots; 4.1 m/s)
Visibility: 6 or more miles (10+ km)
Ceiling: 16000 feet AGL
Clouds: few clouds at 1000 feet AGL
scattered clouds at 12000 feet AGL
broken clouds at 16000 feet AGL
Weather: no significant weather observed at this time

METAR text: ROAH 100300Z 18008KT 9999 FEW010 BKN160 26/23 Q1012 RMK 1CU010 7AC160 A2988
Conditions at: ROAH (NAHA (CIV/JASDF), JP) observed 0300 UTC 10 May 2021
Temperature: 26.0°C (79°F)
Dewpoint: 23.0°C (73°F) [RH = 84%]
Pressure (altimeter): 29.88 inches Hg (1012.0 mb)
Winds: from the S (180 degrees) at 9 MPH (8 knots; 4.1 m/s)
Visibility: 6 or more miles (10+ km)
Ceiling: 16000 feet AGL
Clouds: few clouds at 1000 feet AGL
broken clouds at 16000 feet AGL
Weather: no significant weather observed at this time

METAR text: ROAH 100230Z 18008KT 9999 FEW010 BKN160 26/23 Q1011 RMK 1CU010 7AC160 A2988
Conditions at: ROAH (NAHA (CIV/JASDF), JP) observed 0230 UTC 10 May 2021
Temperature: 26.0°C (79°F)
Dewpoint: 23.0°C (73°F) [RH = 84%]
Pressure (altimeter): 29.85 inches Hg (1011.0 mb)
Winds: from the S (180 degrees) at 9 MPH (8 knots; 4.1 m/s)
Visibility: 6 or more miles (10+ km)
Ceiling: 16000 feet AGL
Clouds: few clouds at 1000 feet AGL
broken clouds at 16000 feet AGL
Weather: no significant weather observed at this time

METAR text: ROAH 100200Z 19009KT 9999 FEW010 BKN160 25/22 Q1012 RMK 1CU010 7AC160 A2989
Conditions at: ROAH (NAHA (CIV/JASDF), JP) observed 0200 UTC 10 May 2021
Temperature: 25.0°C (77°F)
Dewpoint: 22.0°C (72°F) [RH = 83%]
Pressure (altimeter): 29.88 inches Hg (1012.0 mb)
Winds: from the S (190 degrees) at 10 MPH (9 knots; 4.6 m/s)
Visibility: 6 or more miles (10+ km)
Ceiling: 16000 feet AGL
Clouds: few clouds at 1000 feet AGL
broken clouds at 16000 feet AGL
Weather: no significant weather observed at this time

METAR text: ROAH 100130Z 18012KT 9999 FEW008 BKN160 25/23 Q1012 RMK 1ST008 7AC160 A2989
Conditions at: ROAH (NAHA (CIV/JASDF), JP) observed 0130 UTC 10 May 2021
Temperature: 25.0°C (77°F)
Dewpoint: 23.0°C (73°F) [RH = 89%]
Pressure (altimeter): 29.88 inches Hg (1012.0 mb)
Winds: from the S (180 degrees) at 14 MPH (12 knots; 6.2 m/s)
Visibility: 6 or more miles (10+ km)
Ceiling: 16000 feet AGL
Clouds: few clouds at 800 feet AGL
broken clouds at 16000 feet AGL
Weather: no significant weather observed at this time

METAR text: ROAH 100100Z 17014KT 9999 FEW008 BKN012 BKN160 25/23 Q1012 RMK 1ST008 5CU012 7AC160 A2989
Conditions at: ROAH (NAHA (CIV/JASDF), JP) observed 0100 UTC 10 May 2021
Temperature: 25.0°C (77°F)
Dewpoint: 23.0°C (73°F) [RH = 89%]
Pressure (altimeter): 29.88 inches Hg (1012.0 mb)
Winds: from the S (170 degrees) at 16 MPH (14 knots; 7.2 m/s)
Visibility: 6 or more miles (10+ km)
Ceiling: 1200 feet AGL
Clouds: few clouds at 800 feet AGL
broken clouds at 1200 feet AGL
broken clouds at 16000 feet AGL
Weather: no significant weather observed at this time

METAR text: ROAH 100030Z 18013KT 9999 FEW008 BKN012 25/23 Q1011 RMK 1ST008 7CU012 A2988
Conditions at: ROAH (NAHA (CIV/JASDF), JP) observed 0030 UTC 10 May 2021
Temperature: 25.0°C (77°F)
Dewpoint: 23.0°C (73°F) [RH = 89%]
Pressure (altimeter): 29.85 inches Hg (1011.0 mb)
Winds: from the S (180 degrees) at 15 MPH (13 knots; 6.7 m/s)
Visibility: 6 or more miles (10+ km)
Ceiling: 1200 feet AGL
Clouds: few clouds at 800 feet AGL
broken clouds at 1200 feet AGL
Weather: no significant weather observed at this time

METAR text: ROAH 100000Z 17013KT 9999 FEW008 BKN012 BKN170 25/23 Q1011 RMK 2ST008 5CU012 6AC170 A2987
Conditions at: ROAH (NAHA (CIV/JASDF), JP) observed 0000 UTC 10 May 2021
Temperature: 25.0°C (77°F)
Dewpoint: 23.0°C (73°F) [RH = 89%]
Pressure (altimeter): 29.85 inches Hg (1011.0 mb)
Winds: from the S (170 degrees) at 15 MPH (13 knots; 6.7 m/s)
Visibility: 6 or more miles (10+ km)
Ceiling: 1200 feet AGL
Clouds: few clouds at 800 feet AGL
broken clouds at 1200 feet AGL
broken clouds at 17000 feet AGL
Weather: no significant weather observed at this time

METAR text: ROAH 092330Z 17012KT 9999 FEW008 BKN170 25/23 Q1011 RMK 2ST008 6AC170 A2988
Conditions at: ROAH (NAHA (CIV/JASDF), JP) observed 2330 UTC 09 May 2021
Temperature: 25.0°C (77°F)
Dewpoint: 23.0°C (73°F) [RH = 89%]
Pressure (altimeter): 29.85 inches Hg (1011.0 mb)
Winds: from the S (170 degrees) at 14 MPH (12 knots; 6.2 m/s)
Visibility: 6 or more miles (10+ km)
Ceiling: 17000 feet AGL
Clouds: few clouds at 800 feet AGL
broken clouds at 17000 feet AGL
Weather: no significant weather observed at this time

METAR text: ROAH 092300Z 16009KT 9999 FEW010 BKN190 25/22 Q1011 RMK 1CU010 6AC190 A2987
Conditions at: ROAH (NAHA (CIV/JASDF), JP) observed 2300 UTC 09 May 2021
Temperature: 25.0°C (77°F)
Dewpoint: 22.0°C (72°F) [RH = 83%]
Pressure (altimeter): 29.85 inches Hg (1011.0 mb)
Winds: from the SSE (160 degrees) at 10 MPH (9 knots; 4.6 m/s)
Visibility: 6 or more miles (10+ km)
Ceiling: 19000 feet AGL
Clouds: few clouds at 1000 feet AGL
broken clouds at 19000 feet AGL
Weather: no significant weather observed at this time

Forecast for: ROAH (NAHA (CIV/JASDF), JP)
Text: TAF ROAH 110513Z 1106/1212 18010KT 9999 FEW008 BKN015
Forecast period: 0600 UTC 11 May 2021 to 1200 UTC 12 May 2021
Forecast type: FROM: standard forecast or significant change
Winds: from the S (180 degrees) at 12 MPH (10 knots; 5.1 m/s)
Visibility: 6 or more miles (10+ km)
Ceiling: 1500 feet AGL
Clouds: few clouds at 800 feet AGL
broken clouds at 1500 feet AGL
Weather: no significant weather forecast for this period
Text: TEMPO 1112/1200 FEW005 BKN008
Forecast period: 1200 UTC 11 May 2021 to 0000 UTC 12 May 2021
Forecast type: TEMPORARY: The following changes expected for less than half the time period
Visibility: missing
Ceiling: 800 feet AGL
Clouds: few clouds at 500 feet AGL
broken clouds at 800 feet AGL
Weather: no significant weather forecast for this period